Frankfurt-Egelsbach Airport

EDFE · Hesse, Germany

METAR history EDFE · Frankfurt-Egelsbach Airport

Below you see METARs of the last few days. Select a year to browse through older METARs, from the year 2007 onwards.

November 27, 2022

Time Code Weather Temp. Visibility Ceiling Wind METAR/SPECI
07:20
V
1 °C 10 km+ - 070° 070° 5 kt METAR EDDF 270620Z AUTO 07005KT CAVOK 01/01 Q1027 TEMPO 1500 BCFG
06:50
V
1 °C 9 km - 060° 060° 5 kt METAR EDDF 270550Z AUTO 06005KT 9000 NSC 01/01 Q1027 TEMPO 2000 BCFG
06:20
L
2 °C 600 m - 050° 050° 5 kt METAR EDDF 270520Z AUTO 05005KT 9999 0600 R25R/P2000N R25C/P2000N R25L/P2000N R18/P2000N BCFG NCD 02/01 Q1027 NOSIG
05:50
L
1 °C 550 m - 060° 060° 7 kt METAR EDDF 270450Z AUTO 06007KT 9999 0550 R25R/P2000N R25C/P2000N R25L/P2000N R18/P2000N BCFG NSC 01/01 Q1027 TEMPO 1500 BCFG
05:20
L
1 °C 1.3 km - 070° 070° 6 kt METAR EDDF 270420Z AUTO 07006KT 9999 1300 R25R/P2000N R25C/P2000N R25L/P2000N R18/P2000N BR NSC 01/01 Q1028 TEMPO 1500 BCFG
04:50
L
2 °C 900 m - 070° 070° 6 kt METAR EDDF 270350Z AUTO 07006KT 9999 0900 R25R/P2000N R25C/P2000N R25L/P2000N R18/P2000N BCFG FEW015 02/01 Q1028 TEMPO 1500 BCFG
04:20
V
2 °C 10 km+ - 060° 060° 4 kt METAR EDDF 270320Z AUTO 06004KT 9999 FEW015 02/01 Q1028 BECMG 2000 BR
03:50
V
3 °C 10 km+ - 060° 060° 5 kt METAR EDDF 270250Z AUTO 06005KT 9999 FEW014 03/03 Q1028 BECMG 2000 BR
03:20
M
5 °C 10 km+ 1,400 ft 080° 080° 4 kt METAR EDDF 270220Z AUTO 08004KT 050V110 9999 BKN014 05/03 Q1028 BECMG 2000 BR SCT015
02:50
M
6 °C 10 km+ 1,400 ft 090° 090° 5 kt METAR EDDF 270150Z AUTO 09005KT 9999 OVC014 06/04 Q1028 BECMG 2000 BR SCT015
02:20
M
6 °C 10 km+ 1,500 ft 070° 070° 4 kt METAR EDDF 270120Z AUTO 07004KT 9999 OVC015 06/04 Q1029 BECMG 2000 BR SCT015
01:50
M
6 °C 10 km+ 1,600 ft 100° 100° 3 kt METAR EDDF 270050Z AUTO 10003KT 9999 OVC016 06/04 Q1029 NOSIG
01:20
M
6 °C 10 km+ 1,600 ft 120° 120° 3 kt METAR EDDF 270020Z AUTO 12003KT 9999 OVC016 06/04 Q1029 NOSIG
00:50
M
6 °C 10 km+ 1,600 ft 160° 160° 1 kt METAR EDDF 262350Z AUTO 16001KT 9999 OVC016 06/04 Q1030 NOSIG
00:20
M
6 °C 10 km+ 1,600 ft Var Var 2 kt METAR EDDF 262320Z AUTO VRB02KT 9999 OVC016 06/04 Q1030 NOSIG

November 26, 2022

Time Code Weather Temp. Visibility Ceiling Wind METAR/SPECI
23:50
M
6 °C 10 km+ 1,600 ft 180° 180° 2 kt METAR EDDF 262250Z AUTO 18002KT 9999 OVC016 06/04 Q1030 NOSIG
23:20
M
6 °C 10 km+ 1,600 ft 130° 130° 2 kt METAR EDDF 262220Z AUTO 13002KT 9999 OVC016 06/04 Q1031 NOSIG
22:50
M
6 °C 10 km+ 1,600 ft Var Var 2 kt METAR EDDF 262150Z AUTO VRB02KT 9999 OVC016 06/04 Q1031 NOSIG
22:20
M
6 °C 10 km+ 1,600 ft 190° 190° 4 kt METAR EDDF 262120Z AUTO 19004KT 160V220 9999 OVC016 06/04 Q1031
21:50
M
6 °C 10 km+ 1,500 ft 140° 140° 4 kt METAR EDDF 262050Z AUTO 14004KT 9999 OVC015 06/05 Q1031 NOSIG
21:20
M
6 °C 10 km+ 1,400 ft 180° 180° 3 kt METAR EDDF 262020Z AUTO 18003KT 9999 OVC014 06/04 Q1031
20:50
M
6 °C 10 km+ 1,500 ft 160° 160° 3 kt METAR EDDF 261950Z AUTO 16003KT 130V220 9999 OVC015 06/05 Q1031 NOSIG
20:20
M
6 °C 10 km+ 1,500 ft 200° 200° 4 kt METAR EDDF 261920Z AUTO 20004KT 9999 OVC015 06/05 Q1031 NOSIG
19:50
M
6 °C 10 km+ 1,500 ft 170° 170° 3 kt METAR EDDF 261850Z AUTO 17003KT 9999 OVC015 06/05 Q1031 NOSIG
19:20
M
6 °C 10 km+ 1,500 ft Var Var 2 kt METAR EDDF 261820Z AUTO VRB02KT 9999 OVC015 06/05 Q1031 NOSIG
18:50
M
6 °C 10 km+ 1,600 ft 130° 130° 5 kt METAR EDDF 261750Z AUTO 13005KT 9999 OVC016 06/05 Q1031 NOSIG
18:20
M
6 °C 10 km+ 1,700 ft 160° 160° 3 kt METAR EDDF 261720Z AUTO 16003KT 140V210 9999 OVC017 06/05 Q1031 NOSIG
17:50
M
6 °C 10 km+ 1,600 ft Var Var 1 kt METAR EDDF 261650Z AUTO VRB01KT 9999 OVC016 06/05 Q1031 TEMPO BKN014
17:20
M
6 °C 10 km+ 1,500 ft 180° 180° 3 kt METAR EDDF 261620Z AUTO 18003KT 9999 OVC015 06/04 Q1031 NOSIG
16:50
M
6 °C 10 km+ 1,400 ft 160° 160° 3 kt METAR EDDF 261550Z AUTO 16003KT 130V230 9999 OVC014 06/04 Q1031 NOSIG
16:20
M
6 °C 10 km+ 1,200 ft 220° 220° 2 kt METAR EDDF 261520Z AUTO 22002KT 9999 OVC012 06/04 Q1031 NOSIG
15:50
M
7 °C 10 km+ 1,100 ft 200° 200° 2 kt METAR EDDF 261450Z AUTO 20002KT 9999 OVC011 07/04 Q1031 NOSIG
15:20
M
7 °C 10 km+ 1,000 ft 250° 250° 5 kt METAR EDDF 261420Z AUTO 25005KT 9999 OVC010 07/04 Q1031 NOSIG
14:50
I
6 °C 10 km+ 900 ft 250° 250° 6 kt METAR EDDF 261350Z AUTO 25006KT 9999 OVC009 06/04 Q1031 NOSIG
14:20
I
6 °C 10 km+ 800 ft 210° 210° 10 kt METAR EDDF 261320Z AUTO 21010KT 9999 OVC008 06/04 Q1031 NOSIG
13:50
I
6 °C 10 km+ 700 ft 240° 240° 9 kt METAR EDDF 261250Z AUTO 24009KT 9999 OVC007 06/04 Q1031 NOSIG
13:20
I
6 °C 10 km+ 800 ft 210° 210° 8 kt METAR EDDF 261220Z AUTO 21008KT 9999 OVC008 06/04 Q1031 BECMG BKN010
12:50
M
7 °C 10 km+ 1,000 ft 220° 220° 6 kt METAR EDDF 261150Z AUTO 22006KT 9999 BKN010 07/05 Q1031 NOSIG
12:20
I
7 °C 10 km+ 900 ft 230° 230° 8 kt METAR EDDF 261120Z AUTO 23008KT 9999 BKN009 07/05 Q1031 BECMG BKN010
11:50
V
8 °C 10 km+ - 200° 200° 6 kt METAR EDDF 261050Z AUTO 20006KT 9999 SCT008 08/05 Q1031 TEMPO BKN008
11:20
V
7 °C 10 km+ - 200° 200° 6 kt METAR EDDF 261020Z AUTO 20006KT 9999 SCT006 07/05 Q1031 TEMPO BKN007
10:50
V
6 °C 10 km+ - 210° 210° 4 kt METAR EDDF 260950Z AUTO 21004KT 180V240 9999 FEW005 06/05 Q1032 TEMPO BKN007
10:20
V
5 °C 10 km+ - 210° 210° 4 kt METAR EDDF 260920Z AUTO 21004KT 9999 FEW005 05/05 Q1031 TEMPO BKN007
09:50
L
3 °C 250 m - 190° 190° 4 kt METAR EDDF 260850Z AUTO 19004KT 160V220 6000 0250 R25R/P2000N R25C/P2000N R25L/P2000N R18/0900N BCFG FEW001 03/03 Q1031 BECMG 9999
09:20
L
3 °C 350 m - 140° 140° 4 kt METAR EDDF 260820Z AUTO 14004KT 1000 0350 R25R/P2000N R25C/1400U R25L/1200U R18/P2000N BCFG FEW001 03/03 Q1031 BECMG 9999
08:50
L
0 °C 300 m - 170° 170° 3 kt METAR EDDF 260750Z AUTO 17003KT 9000 0300 R25R/P2000N R25C/P2000N R25L/P2000N R18/P2000N BCFG FEW002 00/00 Q1031 NOSIG
08:20
L
1 °C 250 m - 210° 210° 2 kt METAR EDDF 260720Z AUTO 21002KT 6000 0250 R25R/P2000N R25C/P2000N R25L/P2000N R18/1000D BCFG FEW002 01/00 Q1030 NOSIG
07:50
L
0 °C 800 m - 200° 200° 3 kt METAR EDDF 260650Z AUTO 20003KT 9999 0800 R25R/P2000N R25C/P2000N R25L/P2000N R18/P2000N BCFG NCD 00/00 Q1030 NOSIG
07:20
L
0 °C 1.3 km - 220° 220° 6 kt METAR EDDF 260620Z AUTO 22006KT 9999 1300 R25R/P2000N R25C/P2000N R25L/P2000N R18/1800D BR NCD 00/M00 Q1030 NOSIG
06:50
I
1 °C 3.5 km - 230° 230° 6 kt METAR EDDF 260550Z AUTO 23006KT 170V260 9999 3500 NCD 01/00 Q1029 NOSIG
06:20
L
0 °C 1.3 km - 210° 210° 3 kt METAR EDDF 260520Z AUTO 21003KT 170V260 9000 1300 R25R/P2000N R25C/P2000N R25L/P2000N R18/P2000N BR NCD M00/M00 Q1029 NOSIG
05:50
I
1 °C 1.5 km - Var Var 2 kt METAR EDDF 260450Z AUTO VRB02KT 9999 1500 BR NCD 01/00 Q1029 NOSIG
05:20
L
1 °C 1 km - Var Var 2 kt METAR EDDF 260420Z AUTO VRB02KT 9999 1000 R25R/P2000N R25C/P2000N R25L/P2000N R18/P2000N BCFG FEW021 01/00 Q1028 NOSIG
04:50
L
1 °C 1 km - 140° 140° 4 kt METAR EDDF 260350Z AUTO 14004KT 9999 1000 R25R/P2000N R25C/P2000N R25L/P2000N R18/1600D BR FEW020 01/01 Q1028 NOSIG
04:20
V
2 °C 10 km+ - 220° 220° 2 kt METAR EDDF 260320Z AUTO 22002KT 9999 FEW025 02/01 Q1028 NOSIG
03:50
M
2 °C 10 km+ 2,400 ft 170° 170° 3 kt METAR EDDF 260250Z AUTO 17003KT 110V250 9999 BKN024 02/01 Q1028 NOSIG
03:20
L
2 °C 1 km - 230° 230° 3 kt METAR EDDF 260220Z AUTO 23003KT 9999 1000 R25R/P2000N R25C/P2000N R25L/P2000N R18/P2000N BR SCT022 SCT026 02/02 Q1028 NOSIG
02:50
V
2 °C 10 km+ - 200° 200° 5 kt METAR EDDF 260150Z AUTO 20005KT 190V270 9999 FEW020 02/02 Q1027 NOSIG
02:20
L
2 °C 650 m - Var Var 2 kt METAR EDDF 260120Z AUTO VRB02KT 9999 0650 R25R/P2000N R25C/P2000N R25L/P2000N R18/P2000N BCFG FEW021 02/02 Q1027
01:50
L
2 °C 1.1 km - 160° 160° 2 kt METAR EDDF 260050Z AUTO 16002KT 9999 1100 R25R/P2000N R25C/P2000N R25L/P2000N R18/P2000N BR SCT022 02/02 Q1027 NOSIG
01:20
V
3 °C 10 km+ - Var 000° 0 kt METAR EDDF 260020Z AUTO 00000KT 9999 FEW023 03/02 Q1026 NOSIG
00:50
V
3 °C 10 km+ - 170° 170° 3 kt METAR EDDF 252350Z AUTO 17003KT 9999 SCT024 03/03 Q1026 NOSIG
00:20
V
3 °C 10 km+ - 160° 160° 3 kt METAR EDDF 252320Z AUTO 16003KT CAVOK 03/03 Q1026 NOSIG

November 25, 2022

Time Code Weather Temp. Visibility Ceiling Wind METAR/SPECI
23:50
V
5 °C 10 km+ - Var Var 2 kt METAR EDDF 252250Z AUTO VRB02KT CAVOK 05/04 Q1025 NOSIG
23:20
V
4 °C 10 km+ - 220° 220° 6 kt METAR EDDF 252220Z AUTO 22006KT CAVOK 04/04 Q1025 NOSIG
22:50
V
4 °C 10 km+ - 210° 210° 4 kt METAR EDDF 252150Z AUTO 21004KT CAVOK 04/04 Q1025 NOSIG
22:20
V
5 °C 10 km+ - 170° 170° 2 kt METAR EDDF 252120Z AUTO 17002KT CAVOK 05/05 Q1025 NOSIG
21:50
V
6 °C 10 km+ - 160° 160° 3 kt METAR EDDF 252050Z AUTO 16003KT 130V250 CAVOK 06/05 Q1024 NOSIG
21:20
V
6 °C 10 km+ - 190° 190° 1 kt METAR EDDF 252020Z AUTO 19001KT CAVOK 06/06 Q1024 NOSIG
20:50
V
7 °C 10 km+ - 200° 200° 4 kt METAR EDDF 251950Z AUTO 20004KT 9999 FEW047 07/06 Q1023 NOSIG
20:20
V
6 °C 10 km+ - 200° 200° 3 kt METAR EDDF 251920Z AUTO 20003KT 9999 SCT046 06/06 Q1023 NOSIG
19:50
V
7 °C 10 km+ - Var Var 1 kt METAR EDDF 251850Z AUTO VRB01KT 9999 -SHRA FEW024 FEW///CB 07/06 Q1022 RESHGR NOSIG
19:20
V
7 °C 10 km+ - 210° 210° 4 kt METAR EDDF 251820Z AUTO 21004KT 9999 -SHRA FEW041 FEW///CB 07/06 Q1022 NOSIG
18:50
V
7 °C 10 km+ - 210° 210° 4 kt METAR EDDF 251750Z AUTO 21004KT 9999 SCT046 07/06 Q1021 NOSIG
18:20
V
7 °C 10 km+ - 230° 230° 3 kt METAR EDDF 251720Z AUTO 23003KT 9999 SCT046 07/06 Q1021 NOSIG
17:50
V
7 °C 10 km+ - 190° 190° 5 kt METAR EDDF 251650Z AUTO 19005KT CAVOK 07/06 Q1021 NOSIG
17:20
V
7 °C 10 km+ - 170° 170° 5 kt METAR EDDF 251620Z AUTO 17005KT 140V200 CAVOK 07/06 Q1020 NOSIG
16:50
V
8 °C 10 km+ - 160° 160° 4 kt METAR EDDF 251550Z AUTO 16004KT CAVOK 08/06 Q1020 BECMG 22005KT
16:20
V
8 °C 10 km+ - 150° 150° 5 kt METAR EDDF 251520Z AUTO 15005KT 9999 FEW038 08/07 Q1019 BECMG 21005KT
15:50
V
9 °C 10 km+ - 170° 170° 5 kt METAR EDDF 251450Z AUTO 17005KT 9999 SCT040 09/07 Q1019 NOSIG
15:20
V
10 °C 10 km+ 3,700 ft 210° 210° 7 kt METAR EDDF 251420Z AUTO 21007KT 9999 BKN037 10/07 Q1019 NOSIG
14:50
V
10 °C 10 km+ 3,500 ft 200° 200° 6 kt METAR EDDF 251350Z AUTO 20006KT 9999 FEW012 BKN035 BKN043 10/07 Q1019 NOSIG
14:20
V
10 °C 10 km+ 3,600 ft 200° 200° 6 kt METAR EDDF 251320Z AUTO 20006KT 170V230 9999 SCT012 BKN036 BKN046 10/07 Q1018 NOSIG
13:50
M
9 °C 10 km+ 1,100 ft 220° 220° 6 kt METAR EDDF 251250Z AUTO 22006KT 190V260 9999 BKN011 BKN033 09/06 Q1018 BECMG SCT010 BKN030
13:20
V
9 °C 10 km+ 3,000 ft 210° 210° 6 kt METAR EDDF 251220Z AUTO 21006KT 9999 FEW010 BKN030 09/06 Q1018 NOSIG
12:50
M
8 °C 10 km+ 2,800 ft 220° 220° 6 kt METAR EDDF 251150Z AUTO 22006KT 9999 FEW008 BKN028 08/06 Q1017 NOSIG
12:20
M
8 °C 10 km+ 2,800 ft 200° 200° 6 kt METAR EDDF 251120Z AUTO 20006KT 9999 SCT007 BKN028 BKN048 08/06 Q1017 NOSIG
11:50
M
7 °C 10 km+ 2,600 ft 210° 210° 7 kt METAR EDDF 251050Z AUTO 21007KT 9999 SCT006 BKN026 07/05 Q1017 TEMPO BKN006
11:20
V
7 °C 10 km+ - 200° 200° 6 kt METAR EDDF 251020Z AUTO 20006KT 9999 FEW006 07/06 Q1017 NOSIG
10:50
V
6 °C 10 km+ 4,000 ft 220° 220° 4 kt METAR EDDF 250950Z AUTO 22004KT 9999 FEW024 BKN040 06/05 Q1017 NOSIG
10:20
V
5 °C 10 km+ 3,600 ft 230° 230° 5 kt METAR EDDF 250920Z AUTO 23005KT 9999 BKN036 BKN044 05/05 Q1016 NOSIG
09:50
V
5 °C 10 km+ 3,800 ft 250° 250° 4 kt METAR EDDF 250850Z AUTO 25004KT 9999 -RA BKN038 BKN045 05/04 Q1016 NOSIG
09:20
V
5 °C 10 km+ 4,600 ft 240° 240° 3 kt METAR EDDF 250820Z AUTO 24003KT 9999 FEW028 BKN046 05/04 Q1016 NOSIG
08:50
V
4 °C 10 km+ 3,200 ft 230° 230° 1 kt METAR EDDF 250750Z AUTO 23001KT 9999 -RA BKN032 BKN049 04/04 Q1016 TEMPO RA
08:20
V
4 °C 10 km+ 4,600 ft Var Var 1 kt METAR EDDF 250720Z AUTO VRB01KT 9999 BKN046 04/03 Q1016 RESHRA TEMPO RA
07:50
V
3 °C 10 km+ - Var Var 2 kt METAR EDDF 250650Z AUTO VRB02KT 9999 SHRA FEW///CB 03/03 Q1016 TEMPO NSW BKN012
07:20
V
3 °C 10 km+ - 210° 210° 3 kt METAR EDDF 250620Z AUTO 21003KT 180V240 CAVOK 03/03 Q1015 TEMPO RA BKN012
06:50
V
3 °C 10 km+ - Var Var 1 kt METAR EDDF 250550Z AUTO VRB01KT CAVOK 03/02 Q1015 NOSIG
06:20
V
2 °C 10 km+ - 010° 010° 1 kt METAR EDDF 250520Z AUTO 01001KT 9999 FEW049 02/02 Q1015 NOSIG
05:50
V
2 °C 10 km+ - Var Var 1 kt METAR EDDF 250450Z AUTO VRB01KT CAVOK 02/02 Q1015 NOSIG
05:20
V
2 °C 10 km+ - Var Var 2 kt METAR EDDF 250420Z AUTO VRB02KT 9999 FEW045 02/02 Q1015 NOSIG
04:50
V
2 °C 10 km+ - 050° 050° 1 kt METAR EDDF 250350Z AUTO 05001KT 9999 SCT045 02/01 Q1015 NOSIG
04:20
V
1 °C 10 km+ 4,400 ft 050° 050° 1 kt METAR EDDF 250320Z AUTO 05001KT 9999 BKN044 01/01 Q1015 NOSIG
03:50
V
1 °C 10 km+ 4,300 ft 070° 070° 3 kt METAR EDDF 250250Z AUTO 07003KT 9999 BKN043 01/00 Q1015 NOSIG
03:20
V
1 °C 10 km+ 4,100 ft Var Var 2 kt METAR EDDF 250220Z AUTO VRB02KT 9999 BKN041 01/01 Q1015 NOSIG
02:50
V
1 °C 10 km+ 3,900 ft 060° 060° 3 kt METAR EDDF 250150Z AUTO 06003KT 9999 BKN039 BKN048 01/01 Q1015 NOSIG
02:20
V
1 °C 10 km+ - Var Var 1 kt METAR EDDF 250120Z AUTO VRB01KT 9999 FEW039 01/01 Q1015 NOSIG
01:50
V
1 °C 10 km+ - Var Var 2 kt METAR EDDF 250050Z AUTO VRB02KT CAVOK 01/01 Q1015
01:20
V
1 °C 10 km+ - Var Var 2 kt METAR EDDF 250020Z AUTO VRB02KT CAVOK 01/01 Q1015 NOSIG
00:50
I
1 °C 1.5 km - Var Var 1 kt METAR EDDF 242350Z AUTO VRB01KT 9999 1500 BR NSC 01/01 Q1015 TEMPO 3000 BR
00:20
V
2 °C 10 km+ - Var Var 1 kt METAR EDDF 242320Z AUTO VRB01KT CAVOK 02/02 Q1015 NOSIG

November 24, 2022

Time Code Weather Temp. Visibility Ceiling Wind METAR/SPECI
23:50
V
2 °C 10 km+ - 110° 110° 2 kt METAR EDDF 242250Z AUTO 11002KT 9999 FEW022 02/02 Q1015
23:20
V
3 °C 10 km+ - Var Var 1 kt METAR EDDF 242220Z AUTO VRB01KT 9999 FEW033 03/02 Q1015 NOSIG
22:50
V
3 °C 10 km+ - 080° 080° 1 kt METAR EDDF 242150Z AUTO 08001KT CAVOK 03/02 Q1015 NOSIG
22:20
V
3 °C 10 km+ - Var Var 2 kt METAR EDDF 242120Z AUTO VRB02KT CAVOK 03/03 Q1015 NOSIG
21:50
V
4 °C 10 km+ - 270° 270° 3 kt METAR EDDF 242050Z AUTO 27003KT 250V330 9999 FEW027 04/04 Q1015 NOSIG
21:20
V
4 °C 10 km+ - Var Var 2 kt METAR EDDF 242020Z AUTO VRB02KT CAVOK 04/03 Q1015 NOSIG
20:50
V
5 °C 10 km+ - 190° 190° 2 kt METAR EDDF 241950Z AUTO 19002KT CAVOK 05/04 Q1015 NOSIG
20:20
V
5 °C 10 km+ - 190° 190° 2 kt METAR EDDF 241920Z AUTO 19002KT CAVOK 05/04 Q1015 NOSIG
19:50
V
5 °C 10 km+ - Var Var 1 kt METAR EDDF 241850Z AUTO VRB01KT 9999 FEW030 05/04 Q1015 NOSIG
19:20
V
5 °C 10 km+ - Var Var 2 kt METAR EDDF 241820Z AUTO VRB02KT CAVOK 05/04 Q1015 NOSIG
18:50
V
6 °C 10 km+ - 190° 190° 6 kt METAR EDDF 241750Z AUTO 19006KT CAVOK 06/04 Q1015 NOSIG
18:20
V
7 °C 10 km+ - 170° 170° 5 kt METAR EDDF 241720Z AUTO 17005KT CAVOK 07/04 Q1015 NOSIG
17:50
V
7 °C 10 km+ - 170° 170° 7 kt METAR EDDF 241650Z AUTO 17007KT 9999 FEW041 07/05 Q1015 NOSIG
17:20
V
7 °C 10 km+ - 180° 180° 6 kt METAR EDDF 241620Z AUTO 18006KT CAVOK 07/05 Q1015 RE// NOSIG
16:50
V
9 °C 10 km+ - 190° 190° 7 kt METAR EDDF 241550Z AUTO 19007KT 9999 FEW043 09/05 Q1014 NOSIG
16:20
V
10 °C 10 km+ - 210° 210° 7 kt METAR EDDF 241520Z AUTO 21007KT 9999 FEW044 10/05 Q1014 NOSIG
15:50
V
11 °C 10 km+ - 220° 220° 9 kt METAR EDDF 241450Z AUTO 22009KT 9999 FEW040 11/05 Q1014 NOSIG
15:20
V
12 °C 10 km+ - 230° 230° 10 kt METAR EDDF 241420Z AUTO 23010KT 9999 FEW041 SCT049 12/04 Q1014 NOSIG
14:50
V
12 °C 10 km+ 4,600 ft 230° 230° 11 kt METAR EDDF 241350Z AUTO 23011KT 9999 FEW035 BKN046 12/04 Q1014 NOSIG
14:20
V
12 °C 10 km+ 4,800 ft 230° 230° 11 kt METAR EDDF 241320Z AUTO 23011KT 9999 FEW038 BKN048 12/05 Q1014 RE// NOSIG
13:50
V
12 °C 10 km+ 4,400 ft 240° 240° 12 kt METAR EDDF 241250Z AUTO 24012KT 9999 FEW033 BKN044 12/05 Q1013 NOSIG
13:20
V
11 °C 10 km+ 4,500 ft 240° 240° 10 kt METAR EDDF 241220Z AUTO 24010KT 9999 FEW031 BKN045 11/05 Q1013 NOSIG
12:50
V
11 °C 10 km+ 4,100 ft 240° 240° 11 kt METAR EDDF 241150Z AUTO 24011KT 9999 FEW030 BKN041 11/05 Q1013
12:20
V
12 °C 10 km+ - 240° 240° 11 kt METAR EDDF 241120Z AUTO 24011KT 210V270 9999 FEW027 SCT041 12/06 Q1013 NOSIG
11:50
V
11 °C 10 km+ - 220° 220° 12 kt METAR EDDF 241050Z AUTO 22012KT CAVOK 11/06 Q1013 NOSIG
11:20
V
10 °C 10 km+ 4,800 ft 210° 210° 11 - 22 kt METAR EDDF 241020Z AUTO 21011G22KT 9999 SCT037 BKN048 10/07 Q1012 NOSIG
10:50
V
10 °C 10 km+ - 210° 210° 9 kt METAR EDDF 240950Z AUTO 21009KT 9999 SCT034 10/07 Q1012 NOSIG

We and third parties follow your internet behavior on our website with cookies. If you continue, we assume you agree with our cookie policy.